createdAt,value
2022-12-03T00:01:35.131Z,21.10
2022-12-03T00:04:03.566Z,19.70
2022-12-03T00:06:34.668Z,17.60
2022-12-03T00:09:04.775Z,16.20
2022-12-03T00:11:32.953Z,19.40
2022-12-03T00:14:01.010Z,19.30
2022-12-03T00:16:29.241Z,16.70
2022-12-03T00:18:57.431Z,19.80
2022-12-03T00:21:25.812Z,18.70
2022-12-03T00:23:53.994Z,20.00
2022-12-03T00:26:22.569Z,15.60
2022-12-03T00:28:51.321Z,15.50
2022-12-03T00:31:21.461Z,14.60
2022-12-03T00:33:53.440Z,17.40
2022-12-03T00:36:21.622Z,20.10
2022-12-03T00:38:49.528Z,13.60
2022-12-03T00:41:17.562Z,15.20
2022-12-03T00:43:45.625Z,16.60
2022-12-03T00:46:16.963Z,16.80
2022-12-03T00:48:47.917Z,20.70
2022-12-03T00:51:16.087Z,20.30
2022-12-03T00:53:44.160Z,16.10
2022-12-03T00:56:12.265Z,16.80
2022-12-03T00:58:40.357Z,20.00
2022-12-03T01:01:08.536Z,22.50
2022-12-03T01:03:36.856Z,19.10
2022-12-03T01:06:05.032Z,24.80
2022-12-03T01:08:33.034Z,20.60
2022-12-03T01:11:01.029Z,22.90
2022-12-03T01:13:29.349Z,24.90
2022-12-03T01:15:57.363Z,19.00
2022-12-03T01:18:25.429Z,17.30
2022-12-03T01:20:53.464Z,18.20
2022-12-03T01:23:21.534Z,16.40
2022-12-03T01:25:49.606Z,15.50
2022-12-03T01:28:17.678Z,16.80
2022-12-03T01:31:04.141Z,14.80
2022-12-03T01:33:32.254Z,18.40
2022-12-03T01:36:00.224Z,15.20
2022-12-03T01:38:28.245Z,15.90
2022-12-03T01:40:56.572Z,21.00
2022-12-03T01:43:24.644Z,26.30
2022-12-03T01:45:52.660Z,28.40
2022-12-03T01:48:20.703Z,25.50
2022-12-03T01:50:48.859Z,26.80
2022-12-03T01:53:19.093Z,27.20
2022-12-03T01:55:49.026Z,25.10
2022-12-03T01:58:22.420Z,30.30
2022-12-03T02:00:50.721Z,20.30
2022-12-03T02:03:23.507Z,18.30
2022-12-03T02:05:52.607Z,18.30
2022-12-03T02:08:35.432Z,16.70
2022-12-03T02:11:11.732Z,20.30
2022-12-03T02:13:40.214Z,20.40
2022-12-03T02:16:08.880Z,21.60
2022-12-03T02:18:37.177Z,18.00
2022-12-03T02:21:17.185Z,19.50
2022-12-03T02:23:51.251Z,24.20
2022-12-03T02:26:19.468Z,24.70
2022-12-03T02:28:47.599Z,27.90
2022-12-03T02:31:15.943Z,23.70
2022-12-03T02:33:44.554Z,23.40
2022-12-03T02:36:13.110Z,23.60
2022-12-03T02:38:43.220Z,21.80
2022-12-03T02:41:35.968Z,29.30
2022-12-03T02:44:06.854Z,25.80
2022-12-03T02:46:35.729Z,29.80
2022-12-03T02:49:06.309Z,24.60
2022-12-03T02:51:35.052Z,20.60
2022-12-03T02:54:03.807Z,18.00
2022-12-03T02:56:33.433Z,16.70
2022-12-03T02:59:05.023Z,14.90
2022-12-03T03:01:34.991Z,16.90
2022-12-03T03:04:04.631Z,15.80
2022-12-03T03:06:32.909Z,15.80
2022-12-03T03:09:01.187Z,17.70
2022-12-03T03:11:29.457Z,16.10
2022-12-03T03:13:57.735Z,15.70
2022-12-03T03:16:25.864Z,15.30
2022-12-03T03:18:53.979Z,15.30
2022-12-03T03:21:22.054Z,17.70
2022-12-03T03:23:50.022Z,17.90
2022-12-03T03:26:18.201Z,16.60
2022-12-03T03:28:49.957Z,17.90
2022-12-03T03:31:22.908Z,17.50
2022-12-03T03:33:52.036Z,15.90
2022-12-03T03:36:20.824Z,21.20
2022-12-03T03:38:49.511Z,21.00
2022-12-03T03:41:18.813Z,25.40
2022-12-03T03:46:17.504Z,18.30
2022-12-03T03:48:48.446Z,19.50
2022-12-03T03:51:17.653Z,18.10
2022-12-03T03:53:48.445Z,19.10
2022-12-03T03:56:19.343Z,17.10
2022-12-03T03:58:47.607Z,17.70
2022-12-03T04:01:17.269Z,20.80
2022-12-03T04:03:45.420Z,21.30
2022-12-03T04:06:13.459Z,20.20
2022-12-03T04:08:41.429Z,19.40
2022-12-03T04:11:28.043Z,20.80
2022-12-03T04:13:56.146Z,20.90
2022-12-03T04:16:24.340Z,18.10
2022-12-03T04:18:52.560Z,26.60
2022-12-03T04:21:41.747Z,20.50
2022-12-03T04:26:57.530Z,25.00
2022-12-03T04:29:25.601Z,25.00
2022-12-03T04:32:12.286Z,26.70
2022-12-03T04:34:58.966Z,28.30
2022-12-03T04:37:27.296Z,23.00
2022-12-03T04:39:55.470Z,24.70
2022-12-03T04:42:23.542Z,32.00
2022-12-03T04:44:52.276Z,25.50
2022-12-03T04:47:21.972Z,28.10
2022-12-03T04:49:52.087Z,20.50
2022-12-03T04:52:21.227Z,21.50
2022-12-03T04:54:49.440Z,26.60
2022-12-03T04:57:17.919Z,23.40
2022-12-03T04:59:46.201Z,20.30
2022-12-03T05:02:14.425Z,23.30
2022-12-03T05:04:43.673Z,25.80
2022-12-03T05:07:11.848Z,22.60
2022-12-03T05:09:39.907Z,23.00
2022-12-03T05:12:08.287Z,26.00
2022-12-03T05:14:36.767Z,28.80
2022-12-03T05:17:04.912Z,24.70
2022-12-03T05:19:51.961Z,25.40
2022-12-03T05:22:20.115Z,25.80
2022-12-03T05:24:48.386Z,23.10
2022-12-03T05:27:21.769Z,23.70
2022-12-03T05:29:52.137Z,33.30
2022-12-03T05:32:20.409Z,40.90
2022-12-03T05:34:48.635Z,33.80
2022-12-03T05:37:16.758Z,33.80
2022-12-03T05:39:44.937Z,40.50
2022-12-03T05:42:31.689Z,44.00
2022-12-03T05:44:59.915Z,42.20
2022-12-03T05:47:27.936Z,25.50
2022-12-03T05:49:56.039Z,31.70
2022-12-03T05:52:24.235Z,32.00
2022-12-03T05:54:52.600Z,37.00
2022-12-03T05:57:20.932Z,33.60
2022-12-03T05:59:49.036Z,46.10
2022-12-03T06:02:17.260Z,48.40
2022-12-03T06:04:45.767Z,34.00
2022-12-03T06:07:14.457Z,27.40
2022-12-03T06:09:42.682Z,33.50
2022-12-03T06:12:10.653Z,40.40
2022-12-03T06:14:39.045Z,44.50
2022-12-03T06:17:07.316Z,52.40
2022-12-03T06:19:35.491Z,41.30
2022-12-03T06:22:03.671Z,33.10
2022-12-03T06:24:31.837Z,33.30
2022-12-03T06:26:59.908Z,36.50
2022-12-03T06:29:27.980Z,46.80
2022-12-03T06:31:56.051Z,48.40
2022-12-03T06:34:24.139Z,35.60
2022-12-03T06:36:52.396Z,26.40
2022-12-03T06:39:22.748Z,27.70
2022-12-03T06:41:51.101Z,31.00
2022-12-03T06:44:19.183Z,30.90
2022-12-03T06:46:47.597Z,34.40
2022-12-03T06:49:15.825Z,31.70
2022-12-03T06:51:43.816Z,29.00
2022-12-03T06:54:12.484Z,26.00
2022-12-03T06:56:45.170Z,25.40
2022-12-03T06:59:13.963Z,26.10
2022-12-03T07:01:42.331Z,31.10
2022-12-03T07:04:10.683Z,34.70
2022-12-03T07:06:39.086Z,32.70
2022-12-03T07:09:07.262Z,30.80
2022-12-03T07:11:40.682Z,31.30
2022-12-03T07:14:11.630Z,33.00
2022-12-03T07:16:40.496Z,31.20
2022-12-03T07:19:09.382Z,31.50
2022-12-03T07:21:37.519Z,34.70
2022-12-03T07:24:06.756Z,42.30
2022-12-03T07:26:34.823Z,36.40
2022-12-03T07:29:03.515Z,38.30
2022-12-03T07:31:32.015Z,38.90
2022-12-03T07:34:00.069Z,48.00
2022-12-03T07:36:28.217Z,41.60
2022-12-03T07:38:56.309Z,41.20
2022-12-03T07:41:24.277Z,39.80
2022-12-03T07:43:52.350Z,38.60
2022-12-03T07:46:20.558Z,43.60
2022-12-03T07:48:48.598Z,54.00
2022-12-03T07:51:16.669Z,45.40
2022-12-03T07:53:44.739Z,52.80
2022-12-03T07:56:13.018Z,54.80
2022-12-03T07:58:41.208Z,49.50
2022-12-03T08:01:10.500Z,43.30
2022-12-03T08:03:38.773Z,50.20
2022-12-03T08:06:07.148Z,56.50
2022-12-03T08:08:35.424Z,52.30
2022-12-03T08:11:04.185Z,60.70
2022-12-03T08:13:34.335Z,55.30
2022-12-03T08:16:14.050Z,55.60
2022-12-03T08:18:42.111Z,55.00
2022-12-03T08:21:12.889Z,53.90
2022-12-03T08:23:41.751Z,54.90
2022-12-03T08:26:30.130Z,50.10
2022-12-03T08:28:58.216Z,67.30
2022-12-03T08:31:32.792Z,55.50
2022-12-03T08:34:23.009Z,64.60
2022-12-03T08:36:56.358Z,61.90
2022-12-03T08:39:30.540Z,63.00
2022-12-03T08:42:28.291Z,67.40
2022-12-03T08:44:57.097Z,61.00
2022-12-03T08:47:25.562Z,66.20
2022-12-03T08:50:23.741Z,64.80
2022-12-03T08:52:53.242Z,55.50
2022-12-03T08:55:37.041Z,64.30
2022-12-03T08:58:36.327Z,53.00
2022-12-03T09:01:07.471Z,63.70
2022-12-03T09:03:35.759Z,59.70
2022-12-03T09:06:04.352Z,62.30
2022-12-03T09:08:32.474Z,65.00
2022-12-03T09:11:01.458Z,76.50
2022-12-03T09:13:29.380Z,58.90
2022-12-03T09:15:58.526Z,77.50
2022-12-03T09:18:27.216Z,68.40
2022-12-03T09:20:56.619Z,62.40
2022-12-03T09:23:24.687Z,70.10
2022-12-03T09:25:52.965Z,64.50
2022-12-03T09:28:21.143Z,77.30
2022-12-03T09:30:49.211Z,68.70
2022-12-03T09:33:17.381Z,61.90
2022-12-03T09:35:45.455Z,68.70
2022-12-03T09:38:13.529Z,61.50
2022-12-03T09:40:42.419Z,67.10
2022-12-03T09:43:12.744Z,68.40
2022-12-03T09:45:40.810Z,64.30
2022-12-03T09:48:09.039Z,61.90
2022-12-03T09:50:41.571Z,62.20
2022-12-03T09:53:17.744Z,63.30
2022-12-03T09:55:49.608Z,63.70
2022-12-03T09:58:19.216Z,70.10
2022-12-03T10:03:23.026Z,65.10
2022-12-03T10:05:53.980Z,58.00
2022-12-03T10:08:26.943Z,61.80
2022-12-03T10:10:57.686Z,61.30
2022-12-03T10:13:31.085Z,67.20
2022-12-03T10:16:01.006Z,62.60
2022-12-03T10:18:38.315Z,64.40
2022-12-03T10:21:23.663Z,60.60
2022-12-03T10:24:16.927Z,62.30
2022-12-03T10:26:46.750Z,58.50
2022-12-03T10:29:33.649Z,62.20
2022-12-03T10:32:12.927Z,61.30
2022-12-03T10:34:42.495Z,60.60
2022-12-03T10:37:18.716Z,60.60
2022-12-03T10:40:08.635Z,60.80
2022-12-03T10:42:39.808Z,59.70
2022-12-03T10:45:25.431Z,61.80
2022-12-03T10:48:07.461Z,56.50
2022-12-03T10:50:36.340Z,61.80
2022-12-03T10:53:05.143Z,53.70
2022-12-03T10:55:39.860Z,55.40
2022-12-03T10:58:26.269Z,31.70
2022-12-03T11:00:56.502Z,30.00
2022-12-03T11:03:26.713Z,30.60
2022-12-03T11:05:56.796Z,29.90
2022-12-03T11:08:35.767Z,29.30
2022-12-03T11:11:08.084Z,28.40
2022-12-03T11:13:36.102Z,31.30
2022-12-03T11:16:06.193Z,25.90
2022-12-03T11:18:37.389Z,29.00
2022-12-03T11:21:05.950Z,30.50
2022-12-03T11:23:46.039Z,29.30
2022-12-03T11:26:19.218Z,27.10
2022-12-03T11:28:47.757Z,27.60
2022-12-03T11:31:48.002Z,31.20
2022-12-03T11:34:19.805Z,29.30
2022-12-03T11:37:10.065Z,24.40
2022-12-03T11:39:51.079Z,26.70
2022-12-03T11:42:27.933Z,25.30
2022-12-03T11:45:05.429Z,29.80
2022-12-03T11:48:00.305Z,28.70
2022-12-03T11:50:41.540Z,25.70
2022-12-03T11:53:15.742Z,28.10
2022-12-03T11:56:06.279Z,29.30
2022-12-03T11:58:38.277Z,26.60
2022-12-03T12:01:08.287Z,27.10
2022-12-03T12:03:36.401Z,26.80
2022-12-03T12:06:13.885Z,25.90
2022-12-03T12:08:56.931Z,25.80
2022-12-03T12:11:41.507Z,25.80
2022-12-03T12:14:13.882Z,25.00
2022-12-03T12:16:52.437Z,27.70
2022-12-03T12:19:54.095Z,29.80
2022-12-03T12:22:25.605Z,26.80
2022-12-03T12:24:58.922Z,23.80
2022-12-03T12:27:51.262Z,21.80
2022-12-03T12:30:24.557Z,27.10
2022-12-03T12:33:13.214Z,24.10
2022-12-03T12:35:42.105Z,25.90
2022-12-03T12:38:11.200Z,24.90
2022-12-03T12:43:24.078Z,26.20
2022-12-03T12:45:55.282Z,28.70
2022-12-03T12:48:25.199Z,24.60
2022-12-03T12:51:08.833Z,23.50
2022-12-03T12:53:38.742Z,26.50
2022-12-03T12:56:20.337Z,27.70
2022-12-03T12:58:48.310Z,27.40
2022-12-03T13:01:29.159Z,24.10
2022-12-03T13:03:58.459Z,26.40
2022-12-03T13:08:57.199Z,30.20
2022-12-03T13:11:25.260Z,33.00
2022-12-03T13:13:53.371Z,29.50
2022-12-03T13:16:32.768Z,31.70
2022-12-03T13:21:39.986Z,27.60
2022-12-03T13:24:35.980Z,30.70
2022-12-03T13:27:22.748Z,27.30
2022-12-03T13:29:59.275Z,32.10
2022-12-03T13:32:31.171Z,31.80
2022-12-03T13:35:06.067Z,28.60
2022-12-03T13:37:34.243Z,36.60
2022-12-03T13:40:22.590Z,28.70
2022-12-03T13:42:50.531Z,32.40
2022-12-03T13:45:24.995Z,34.00
2022-12-03T13:48:00.283Z,36.00
2022-12-03T13:50:39.539Z,33.90
2022-12-03T13:53:37.028Z,51.60
2022-12-03T13:56:17.077Z,39.80
2022-12-03T13:58:45.150Z,41.80
2022-12-03T14:01:13.259Z,39.30
2022-12-03T14:03:41.391Z,34.00
2022-12-03T14:06:09.316Z,33.90
2022-12-03T14:08:37.745Z,36.50
2022-12-03T14:11:06.223Z,28.90
2022-12-03T14:13:34.499Z,33.10
2022-12-03T14:16:02.677Z,33.60
2022-12-03T14:18:30.847Z,28.30
2022-12-03T14:20:59.031Z,30.30
2022-12-03T14:23:27.709Z,33.50
2022-12-03T14:25:55.791Z,35.20
2022-12-03T14:28:23.951Z,38.40
2022-12-03T14:30:53.666Z,32.50
2022-12-03T14:33:21.971Z,34.10
2022-12-03T14:35:53.515Z,30.70
2022-12-03T14:38:22.382Z,26.70
2022-12-03T14:40:50.454Z,28.80
2022-12-03T14:43:18.449Z,31.00
2022-12-03T14:45:46.867Z,31.60
2022-12-03T14:48:14.918Z,26.70
2022-12-03T14:50:43.153Z,19.70
2022-12-03T14:53:11.104Z,25.20
2022-12-03T14:55:39.401Z,22.10
2022-12-03T14:58:07.312Z,29.00
2022-12-03T15:00:35.340Z,27.50
2022-12-03T15:03:03.486Z,28.20
2022-12-03T15:05:31.690Z,33.10
2022-12-03T15:07:59.823Z,34.20
2022-12-03T15:10:27.847Z,29.40
2022-12-03T15:12:56.003Z,34.90
2022-12-03T15:15:24.595Z,28.20
2022-12-03T15:17:52.866Z,30.20
2022-12-03T15:20:20.894Z,30.50
2022-12-03T15:22:49.053Z,31.30
2022-12-03T15:25:24.299Z,34.10
2022-12-03T15:27:52.624Z,35.10
2022-12-03T15:30:20.839Z,34.90
2022-12-03T15:32:49.247Z,33.30
2022-12-03T15:35:18.803Z,33.70
2022-12-03T15:37:47.164Z,34.10
2022-12-03T15:40:15.545Z,32.80
2022-12-03T15:42:43.873Z,35.90
2022-12-03T15:45:15.328Z,29.50
2022-12-03T15:47:44.128Z,31.10
2022-12-03T15:50:14.210Z,36.90
2022-12-03T15:52:42.665Z,42.40
2022-12-03T15:55:10.836Z,48.10
2022-12-03T15:57:39.075Z,42.50
2022-12-03T16:00:08.620Z,45.20
2022-12-03T16:02:41.396Z,38.40
2022-12-03T16:05:12.216Z,46.20
2022-12-03T16:07:40.909Z,48.30
2022-12-03T16:10:11.006Z,48.90
2022-12-03T16:12:39.130Z,52.20
2022-12-03T16:15:07.553Z,64.90
2022-12-03T16:17:35.771Z,46.20
2022-12-03T16:20:04.969Z,49.50
2022-12-03T16:22:33.095Z,43.40
2022-12-03T16:25:01.217Z,45.40
2022-12-03T16:27:29.391Z,48.40
2022-12-03T16:29:57.579Z,59.40
2022-12-03T16:32:25.942Z,52.40
2022-12-03T16:34:53.909Z,47.10
2022-12-03T16:37:21.985Z,53.40
2022-12-03T16:39:52.101Z,40.70
2022-12-03T16:42:20.586Z,46.50
2022-12-03T16:45:12.363Z,21.90
2022-12-03T16:47:40.386Z,30.10
2022-12-03T16:50:12.820Z,34.80
2022-12-03T16:52:47.440Z,34.00
2022-12-03T16:57:43.527Z,30.50
2022-12-03T17:00:12.211Z,24.30
2022-12-03T17:02:40.198Z,29.70
2022-12-03T17:05:09.027Z,25.30
2022-12-03T17:07:37.341Z,22.00
2022-12-03T17:10:06.710Z,23.00
2022-12-03T17:13:07.129Z,25.00
2022-12-03T17:15:22.866Z,34.70
2022-12-03T17:17:50.909Z,37.80
2022-12-03T17:20:20.139Z,45.80
2022-12-03T17:22:48.417Z,47.10
2022-12-03T17:25:16.448Z,35.90
2022-12-03T17:27:48.615Z,44.60
2022-12-03T17:30:17.253Z,61.00
2022-12-03T17:32:45.346Z,39.20
2022-12-03T17:35:13.721Z,43.30
2022-12-03T17:37:41.799Z,40.70
2022-12-03T17:40:12.411Z,41.80
2022-12-03T17:42:40.550Z,36.00
2022-12-03T17:45:09.516Z,31.20
2022-12-03T17:47:37.554Z,35.80
2022-12-03T17:50:07.207Z,35.60
2022-12-03T17:52:35.236Z,37.60
2022-12-03T17:55:15.841Z,52.90
2022-12-03T17:57:49.704Z,45.00
2022-12-03T18:00:18.387Z,44.40
2022-12-03T18:02:46.526Z,36.60
2022-12-03T18:05:14.782Z,42.20
2022-12-03T18:07:42.882Z,33.90
2022-12-03T18:10:12.319Z,35.40
2022-12-03T18:12:40.685Z,33.90
2022-12-03T18:15:09.777Z,41.60
2022-12-03T18:17:38.155Z,33.20
2022-12-03T18:20:07.046Z,32.00
2022-12-03T18:22:35.940Z,34.60
2022-12-03T18:25:05.137Z,29.80
2022-12-03T18:27:34.231Z,39.70
2022-12-03T18:30:02.250Z,31.90
2022-12-03T18:32:30.606Z,36.10
2022-12-03T18:34:58.760Z,38.20
2022-12-03T18:37:28.775Z,38.10
2022-12-03T18:40:00.170Z,37.60
2022-12-03T18:42:28.313Z,36.20
2022-12-03T18:44:57.070Z,32.70
2022-12-03T18:47:29.106Z,36.50
2022-12-03T18:49:57.788Z,27.40
2022-12-03T18:52:26.315Z,33.30
2022-12-03T18:54:55.514Z,37.00
2022-12-03T18:59:52.277Z,42.30
2022-12-03T19:05:10.558Z,36.20
2022-12-03T19:07:38.738Z,38.30
2022-12-03T19:10:08.039Z,35.30
2022-12-03T19:15:06.062Z,30.50
2022-12-03T19:17:39.727Z,31.60
2022-12-03T19:20:09.584Z,33.40
2022-12-03T19:22:37.712Z,28.50
2022-12-03T19:25:06.294Z,35.20
2022-12-03T19:27:34.520Z,29.20
2022-12-03T19:30:02.547Z,33.80
2022-12-03T19:32:30.719Z,35.80
2022-12-03T19:34:59.096Z,39.30
2022-12-03T19:37:27.167Z,34.60
2022-12-03T19:39:55.557Z,38.00
2022-12-03T19:42:25.530Z,35.90
2022-12-03T19:44:53.741Z,37.00
2022-12-03T19:47:24.765Z,36.90
2022-12-03T19:49:53.969Z,35.80
2022-12-03T19:52:22.187Z,36.70
2022-12-03T19:54:50.274Z,31.20
2022-12-03T19:57:23.234Z,31.60
2022-12-03T19:59:52.041Z,27.90
2022-12-03T20:02:20.505Z,30.00
2022-12-03T20:04:48.862Z,35.00
2022-12-03T20:07:16.837Z,37.40
2022-12-03T20:09:45.110Z,40.60
2022-12-03T20:12:13.178Z,49.70
2022-12-03T20:14:41.556Z,47.10
2022-12-03T20:17:09.783Z,52.80
2022-12-03T20:19:38.012Z,41.90
2022-12-03T20:22:06.184Z,59.80
2022-12-03T20:24:34.258Z,34.10
2022-12-03T20:27:03.375Z,33.20
2022-12-03T20:29:31.646Z,34.90
2022-12-03T20:32:00.611Z,35.70
2022-12-03T20:34:28.744Z,37.30
2022-12-03T20:36:56.684Z,25.20
2022-12-03T20:39:25.057Z,25.00
2022-12-03T20:41:53.122Z,22.90
2022-12-03T20:44:21.186Z,26.50
2022-12-03T20:46:49.669Z,27.80
2022-12-03T20:49:17.658Z,27.10
2022-12-03T20:51:46.022Z,28.30
2022-12-03T20:54:14.213Z,26.20
2022-12-03T20:56:42.369Z,29.60
2022-12-03T20:59:13.002Z,24.50
2022-12-03T21:01:42.934Z,28.70
2022-12-03T21:04:18.118Z,27.40
2022-12-03T21:06:46.457Z,32.30
2022-12-03T21:09:14.812Z,29.60
2022-12-03T21:11:43.331Z,26.90
2022-12-03T21:14:11.669Z,26.50
2022-12-03T21:17:06.444Z,22.70
2022-12-03T21:19:28.360Z,23.30
2022-12-03T21:21:56.739Z,28.80
2022-12-03T21:24:24.846Z,27.90
2022-12-03T21:26:53.039Z,31.10
2022-12-03T21:29:21.216Z,27.50
2022-12-03T21:31:49.272Z,32.80
2022-12-03T21:34:17.683Z,24.90
2022-12-03T21:36:46.333Z,28.60
2022-12-03T21:39:14.762Z,30.00
2022-12-03T21:42:22.106Z,30.90
2022-12-03T21:44:30.852Z,30.80
2022-12-03T21:47:09.876Z,24.30
2022-12-03T21:49:42.356Z,26.70
2022-12-03T21:52:11.010Z,20.90
2022-12-03T21:54:39.111Z,25.90
2022-12-03T21:57:07.157Z,23.30
2022-12-03T21:59:35.231Z,27.00
2022-12-03T22:02:03.820Z,22.40
2022-12-03T22:04:32.250Z,45.80
2022-12-03T22:07:00.569Z,20.70
2022-12-03T22:09:28.644Z,23.30
2022-12-03T22:11:59.306Z,27.60
2022-12-03T22:14:28.473Z,29.70
2022-12-03T22:16:56.544Z,25.20
2022-12-03T22:19:26.055Z,32.60
2022-12-03T22:21:54.221Z,20.60
2022-12-03T22:24:23.896Z,28.40
2022-12-03T22:29:22.024Z,27.10
2022-12-03T22:31:50.402Z,20.20
2022-12-03T22:34:18.544Z,17.70
2022-12-03T22:36:46.753Z,23.10
2022-12-03T22:39:14.828Z,27.70
2022-12-03T22:41:42.896Z,83.70
2022-12-03T22:44:10.964Z,78.50
2022-12-03T22:46:39.961Z,65.00
2022-12-03T22:49:08.442Z,36.70
2022-12-03T22:51:36.921Z,56.20
2022-12-03T22:54:06.228Z,69.40
2022-12-03T22:56:34.909Z,49.70
2022-12-03T22:59:03.187Z,41.00
2022-12-03T23:01:33.833Z,25.70
2022-12-03T23:04:02.879Z,26.00
2022-12-03T23:08:59.774Z,23.80
2022-12-03T23:11:28.768Z,25.70
2022-12-03T23:13:59.052Z,24.30
2022-12-03T23:16:30.310Z,31.70
2022-12-03T23:19:00.664Z,32.10
2022-12-03T23:21:32.735Z,26.40
2022-12-03T23:24:03.576Z,30.80
2022-12-03T23:26:36.348Z,23.70
2022-12-03T23:29:06.296Z,27.10
2022-12-03T23:31:35.006Z,24.20
2022-12-03T23:34:04.119Z,30.20
2022-12-03T23:36:33.478Z,27.00
2022-12-03T23:41:29.475Z,22.40
2022-12-03T23:43:57.838Z,19.60
2022-12-03T23:46:27.781Z,25.30
2022-12-03T23:48:58.646Z,29.90
2022-12-03T23:51:27.500Z,20.70
2022-12-03T23:53:56.751Z,19.70
2022-12-03T23:56:29.303Z,21.20
2022-12-03T23:58:58.471Z,24.00
